sensor_id;sensor_type;location;lat;lon;timestamp;pressure;altitude;pressure_sealevel;temperature;humidity
59531;BME280;45349;48.692;8.186;2023-02-21T00:01:51;99242.00;;;4.31;100.00
59531;BME280;45349;48.692;8.186;2023-02-21T00:04:37;99240.41;;;4.15;100.00
59531;BME280;45349;48.692;8.186;2023-02-21T00:07:22;99238.44;;;4.19;100.00
59531;BME280;45349;48.692;8.186;2023-02-21T00:10:07;99241.03;;;4.19;100.00
59531;BME280;45349;48.692;8.186;2023-02-21T00:12:52;99235.78;;;4.20;100.00
59531;BME280;45349;48.692;8.186;2023-02-21T00:15:36;99239.13;;;4.08;100.00
59531;BME280;45349;48.692;8.186;2023-02-21T00:18:20;99226.94;;;4.10;100.00
59531;BME280;45349;48.692;8.186;2023-02-21T00:21:06;99239.13;;;4.08;100.00
59531;BME280;45349;48.692;8.186;2023-02-21T00:23:50;99235.50;;;3.96;100.00
59531;BME280;45349;48.692;8.186;2023-02-21T00:26:34;99236.63;;;3.92;100.00
59531;BME280;45349;48.692;8.186;2023-02-21T00:29:18;99233.75;;;4.11;100.00
59531;BME280;45349;48.692;8.186;2023-02-21T00:32:03;99232.56;;;4.02;100.00
59531;BME280;45349;48.692;8.186;2023-02-21T00:34:47;99236.25;;;3.98;100.00
59531;BME280;45349;48.692;8.186;2023-02-21T00:37:32;99233.78;;;3.96;100.00
59531;BME280;45349;48.692;8.186;2023-02-21T00:40:17;99229.91;;;3.89;100.00
59531;BME280;45349;48.692;8.186;2023-02-21T00:43:01;99226.41;;;3.90;100.00
59531;BME280;45349;48.692;8.186;2023-02-21T00:45:45;99225.09;;;3.83;100.00
59531;BME280;45349;48.692;8.186;2023-02-21T00:48:29;99218.66;;;3.90;100.00
59531;BME280;45349;48.692;8.186;2023-02-21T00:51:15;99219.09;;;3.82;100.00
59531;BME280;45349;48.692;8.186;2023-02-21T00:54:00;99220.03;;;3.81;100.00
59531;BME280;45349;48.692;8.186;2023-02-21T00:56:45;99220.22;;;3.78;100.00
59531;BME280;45349;48.692;8.186;2023-02-21T00:59:29;99215.50;;;3.71;100.00
59531;BME280;45349;48.692;8.186;2023-02-21T01:02:14;99220.13;;;3.80;100.00
59531;BME280;45349;48.692;8.186;2023-02-21T01:04:58;99219.38;;;3.78;100.00
59531;BME280;45349;48.692;8.186;2023-02-21T01:07:42;99212.56;;;3.62;100.00
59531;BME280;45349;48.692;8.186;2023-02-21T01:10:27;99213.13;;;3.67;100.00
59531;BME280;45349;48.692;8.186;2023-02-21T01:13:12;99216.81;;;3.78;100.00
59531;BME280;45349;48.692;8.186;2023-02-21T01:15:56;99218.22;;;3.69;100.00
59531;BME280;45349;48.692;8.186;2023-02-21T01:18:40;99217.28;;;3.70;100.00
59531;BME280;45349;48.692;8.186;2023-02-21T01:21:24;99219.38;;;3.63;100.00
59531;BME280;45349;48.692;8.186;2023-02-21T01:24:12;99221.78;;;3.81;100.00
59531;BME280;45349;48.692;8.186;2023-02-21T01:26:58;99212.38;;;3.65;100.00
59531;BME280;45349;48.692;8.186;2023-02-21T01:29:42;99217.53;;;3.65;100.00
59531;BME280;45349;48.692;8.186;2023-02-21T01:32:27;99206.66;;;3.60;100.00
59531;BME280;45349;48.692;8.186;2023-02-21T01:35:11;99203.44;;;3.57;100.00
59531;BME280;45349;48.692;8.186;2023-02-21T01:37:56;99206.56;;;3.47;100.00
59531;BME280;45349;48.692;8.186;2023-02-21T01:40:40;99196.06;;;3.65;100.00
59531;BME280;45349;48.692;8.186;2023-02-21T01:43:26;99199.84;;;3.74;100.00
59531;BME280;45349;48.692;8.186;2023-02-21T01:46:12;99188.59;;;3.60;100.00
59531;BME280;45349;48.692;8.186;2023-02-21T01:48:59;99191.72;;;3.51;100.00
59531;BME280;45349;48.692;8.186;2023-02-21T01:51:44;99186.47;;;3.52;100.00
59531;BME280;45349;48.692;8.186;2023-02-21T01:54:31;99186.84;;;3.46;100.00
59531;BME280;45349;48.692;8.186;2023-02-21T01:57:17;99182.88;;;3.55;100.00
59531;BME280;45349;48.692;8.186;2023-02-21T02:00:07;99182.06;;;3.54;100.00
59531;BME280;45349;48.692;8.186;2023-02-21T02:02:54;99175.50;;;3.49;100.00
59531;BME280;45349;48.692;8.186;2023-02-21T02:05:42;99172.09;;;3.48;100.00
59531;BME280;45349;48.692;8.186;2023-02-21T02:08:29;99170.88;;;3.54;100.00
59531;BME280;45349;48.692;8.186;2023-02-21T02:11:24;99174.13;;;3.58;100.00
59531;BME280;45349;48.692;8.186;2023-02-21T02:14:23;99167.19;;;3.44;100.00
59531;BME280;45349;48.692;8.186;2023-02-21T02:17:05;99173.81;;;3.33;100.00
59531;BME280;45349;48.692;8.186;2023-02-21T02:19:57;99175.41;;;3.36;100.00
59531;BME280;45349;48.692;8.186;2023-02-21T02:22:53;99171.34;;;3.32;100.00
59531;BME280;45349;48.692;8.186;2023-02-21T02:26:03;99169.69;;;3.45;100.00
59531;BME280;45349;48.692;8.186;2023-02-21T02:28:49;99172.19;;;3.61;100.00
59531;BME280;45349;48.692;8.186;2023-02-21T02:31:41;99166.56;;;3.54;100.00
59531;BME280;45349;48.692;8.186;2023-02-21T02:37:18;99164.91;;;3.39;100.00
59531;BME280;45349;48.692;8.186;2023-02-21T02:39:54;99165.44;;;3.30;100.00
59531;BME280;45349;48.692;8.186;2023-02-21T02:42:32;99166.75;;;3.37;100.00
59531;BME280;45349;48.692;8.186;2023-02-21T02:45:07;99166.75;;;3.37;100.00
59531;BME280;45349;48.692;8.186;2023-02-21T02:47:40;99157.78;;;3.43;100.00
59531;BME280;45349;48.692;8.186;2023-02-21T02:50:08;99160.75;;;3.36;100.00
59531;BME280;45349;48.692;8.186;2023-02-21T02:52:48;99156.50;;;3.35;100.00
59531;BME280;45349;48.692;8.186;2023-02-21T02:55:35;99161.94;;;3.31;100.00
59531;BME280;45349;48.692;8.186;2023-02-21T02:58:04;99152.00;;;3.39;100.00
59531;BME280;45349;48.692;8.186;2023-02-21T03:00:32;99147.94;;;3.35;100.00
59531;BME280;45349;48.692;8.186;2023-02-21T03:03:16;99147.28;;;3.31;100.00
59531;BME280;45349;48.692;8.186;2023-02-21T03:05:56;99151.72;;;3.44;100.00
59531;BME280;45349;48.692;8.186;2023-02-21T03:08:37;99147.47;;;3.43;100.00
59531;BME280;45349;48.692;8.186;2023-02-21T03:11:12;99142.03;;;3.33;100.00
59531;BME280;45349;48.692;8.186;2023-02-21T03:13:43;99141.19;;;3.32;100.00
59531;BME280;45349;48.692;8.186;2023-02-21T03:16:17;99140.19;;;3.20;100.00
59531;BME280;45349;48.692;8.186;2023-02-21T03:18:47;99139.09;;;3.24;100.00
59531;BME280;45349;48.692;8.186;2023-02-21T03:21:18;99140.56;;;3.29;100.00
59531;BME280;45349;48.692;8.186;2023-02-21T03:23:49;99138.53;;;3.19;100.00
59531;BME280;45349;48.692;8.186;2023-02-21T03:26:17;99144.06;;;3.13;100.00
59531;BME280;45349;48.692;8.186;2023-02-21T03:28:48;99140.38;;;3.17;100.00
59531;BME280;45349;48.692;8.186;2023-02-21T03:31:20;99142.56;;;3.09;100.00
59531;BME280;45349;48.692;8.186;2023-02-21T03:33:49;99137.06;;;3.15;100.00
59531;BME280;45349;48.692;8.186;2023-02-21T03:36:15;99138.09;;;3.13;100.00
59531;BME280;45349;48.692;8.186;2023-02-21T03:38:42;99140.19;;;3.20;100.00
59531;BME280;45349;48.692;8.186;2023-02-21T03:41:11;99139.34;;;3.20;100.00
59531;BME280;45349;48.692;8.186;2023-02-21T03:43:38;99136.50;;;3.10;100.00
59531;BME280;45349;48.692;8.186;2023-02-21T03:46:05;99135.13;;;3.19;100.00
59531;BME280;45349;48.692;8.186;2023-02-21T03:48:32;99134.19;;;3.20;100.00
59531;BME280;45349;48.692;8.186;2023-02-21T03:51:08;99143.59;;;3.21;100.00
59531;BME280;45349;48.692;8.186;2023-02-21T03:53:35;99144.16;;;3.26;100.00
59531;BME280;45349;48.692;8.186;2023-02-21T03:56:03;99144.81;;;3.30;100.00
59531;BME280;45349;48.692;8.186;2023-02-21T03:58:51;99140.81;;;3.24;100.00
59531;BME280;45349;48.692;8.186;2023-02-21T04:01:18;99142.31;;;3.14;100.00
59531;BME280;45349;48.692;8.186;2023-02-21T04:03:45;99139.16;;;3.23;100.00
59531;BME280;45349;48.692;8.186;2023-02-21T04:06:12;99144.06;;;3.13;100.00
59531;BME280;45349;48.692;8.186;2023-02-21T04:08:39;99130.69;;;3.06;100.00
59531;BME280;45349;48.692;8.186;2023-02-21T04:11:06;99130.16;;;3.01;100.00
59531;BME280;45349;48.692;8.186;2023-02-21T04:13:34;99136.50;;;3.10;100.00
59531;BME280;45349;48.692;8.186;2023-02-21T04:16:03;99134.63;;;2.98;100.00
59531;BME280;45349;48.692;8.186;2023-02-21T04:18:32;99141.19;;;3.03;100.00
59531;BME280;45349;48.692;8.186;2023-02-21T04:21:00;99139.91;;;2.96;100.00
59531;BME280;45349;48.692;8.186;2023-02-21T04:23:27;99136.19;;;2.86;100.00
59531;BME280;45349;48.692;8.186;2023-02-21T04:25:54;99137.94;;;2.85;100.00
59531;BME280;45349;48.692;8.186;2023-02-21T04:28:27;99137.84;;;2.87;100.00
59531;BME280;45349;48.692;8.186;2023-02-21T04:30:54;99140.22;;;2.75;100.00
59531;BME280;45349;48.692;8.186;2023-02-21T04:33:22;99139.69;;;2.85;100.00
59531;BME280;45349;48.692;8.186;2023-02-21T04:35:49;99146.97;;;2.92;100.00
59531;BME280;45349;48.692;8.186;2023-02-21T04:38:30;99139.69;;;2.85;100.00
59531;BME280;45349;48.692;8.186;2023-02-21T04:40:56;99141.22;;;2.73;100.00
59531;BME280;45349;48.692;8.186;2023-02-21T04:43:23;99142.69;;;2.77;100.00
59531;BME280;45349;48.692;8.186;2023-02-21T04:45:50;99135.81;;;2.77;100.00
59531;BME280;45349;48.692;8.186;2023-02-21T04:48:16;99144.47;;;2.76;100.00
59531;BME280;45349;48.692;8.186;2023-02-21T04:50:45;99154.25;;;2.86;100.00
59531;BME280;45349;48.692;8.186;2023-02-21T04:53:12;99146.41;;;2.87;100.00
59531;BME280;45349;48.692;8.186;2023-02-21T04:55:38;99142.44;;;2.82;100.00
59531;BME280;45349;48.692;8.186;2023-02-21T04:58:05;99145.94;;;2.80;100.00
59531;BME280;45349;48.692;8.186;2023-02-21T05:00:32;99146.72;;;2.66;100.00
59531;BME280;45349;48.692;8.186;2023-02-21T05:02:58;99147.94;;;2.75;100.00
59531;BME280;45349;48.692;8.186;2023-02-21T05:05:25;99145.72;;;2.69;100.00
59531;BME280;45349;48.692;8.186;2023-02-21T05:07:53;99139.91;;;2.65;100.00
59531;BME280;45349;48.692;8.186;2023-02-21T05:10:20;99144.25;;;2.65;100.00
59531;BME280;45349;48.692;8.186;2023-02-21T05:12:47;99135.94;;;2.60;100.00
59531;BME280;45349;48.692;8.186;2023-02-21T05:15:14;99132.44;;;2.61;100.00
59531;BME280;45349;48.692;8.186;2023-02-21T05:17:40;99124.13;;;2.56;100.00
59531;BME280;45349;48.692;8.186;2023-02-21T05:20:08;99119.91;;;2.55;100.00
59531;BME280;45349;48.692;8.186;2023-02-21T05:22:36;99118.75;;;2.60;100.00
59531;BME280;45349;48.692;8.186;2023-02-21T05:25:06;99119.19;;;2.67;100.00
59531;BME280;45349;48.692;8.186;2023-02-21T05:27:32;99116.63;;;2.67;100.00
59531;BME280;45349;48.692;8.186;2023-02-21T05:29:59;99119.41;;;2.78;100.00
59531;BME280;45349;48.692;8.186;2023-02-21T05:32:26;99123.44;;;2.68;100.00
59531;BME280;45349;48.692;8.186;2023-02-21T05:34:53;99122.22;;;2.59;100.00
59531;BME280;45349;48.692;8.186;2023-02-21T05:37:20;99119.16;;;2.53;100.00
59531;BME280;45349;48.692;8.186;2023-02-21T05:39:47;99121.75;;;2.53;100.00
59531;BME280;45349;48.692;8.186;2023-02-21T05:42:15;99120.25;;;2.48;100.00
59531;BME280;45349;48.692;8.186;2023-02-21T05:44:44;99125.34;;;2.50;100.00
59531;BME280;45349;48.692;8.186;2023-02-21T05:47:11;99122.25;;;2.43;100.00
59531;BME280;45349;48.692;8.186;2023-02-21T05:49:37;99119.09;;;2.38;100.00
59531;BME280;45349;48.692;8.186;2023-02-21T05:52:04;99123.50;;;2.36;100.00
59531;BME280;45349;48.692;8.186;2023-02-21T05:54:31;99126.94;;;2.36;100.00
59531;BME280;45349;48.692;8.186;2023-02-21T05:56:57;99122.66;;;2.51;100.00
59531;BME280;45349;48.692;8.186;2023-02-21T05:59:25;99131.31;;;2.50;100.00
59531;BME280;45349;48.692;8.186;2023-02-21T06:01:52;99126.84;;;2.38;100.00
59531;BME280;45349;48.692;8.186;2023-02-21T06:04:18;99120.59;;;2.42;100.00
59531;BME280;45349;48.692;8.186;2023-02-21T06:06:45;99123.84;;;2.30;100.00
59531;BME280;45349;48.692;8.186;2023-02-21T06:09:12;99122.03;;;2.32;100.00
59531;BME280;45349;48.692;8.186;2023-02-21T06:11:38;99119.97;;;2.22;100.00
59531;BME280;45349;48.692;8.186;2023-02-21T06:14:07;99120.38;;;2.31;100.00
59531;BME280;45349;48.692;8.186;2023-02-21T06:16:37;99115.78;;;2.36;100.00
59531;BME280;45349;48.692;8.186;2023-02-21T06:19:05;99118.47;;;2.34;100.00
59531;BME280;45349;48.692;8.186;2023-02-21T06:21:32;99116.56;;;2.22;100.00
59531;BME280;45349;48.692;8.186;2023-02-21T06:24:02;99117.66;;;2.18;100.00
59531;BME280;45349;48.692;8.186;2023-02-21T06:26:29;99113.09;;;2.23;100.00
59531;BME280;45349;48.692;8.186;2023-02-21T06:28:56;99120.44;;;2.45;100.00
59531;BME280;45349;48.692;8.186;2023-02-21T06:31:22;99119.25;;;2.51;100.00
59531;BME280;45349;48.692;8.186;2023-02-21T06:33:50;99112.97;;;2.41;100.00
59531;BME280;45349;48.692;8.186;2023-02-21T06:36:18;99117.03;;;2.45;100.00
59531;BME280;45349;48.692;8.186;2023-02-21T06:38:46;99117.78;;;2.47;100.00
59531;BME280;45349;48.692;8.186;2023-02-21T06:41:17;99117.78;;;2.47;100.00
59531;BME280;45349;48.692;8.186;2023-02-21T06:43:44;99121.44;;;2.43;100.00
59531;BME280;45349;48.692;8.186;2023-02-21T06:46:14;99119.59;;;2.45;100.00
59531;BME280;45349;48.692;8.186;2023-02-21T06:48:42;99115.84;;;2.50;100.00
59531;BME280;45349;48.692;8.186;2023-02-21T06:51:10;99129.88;;;2.61;100.00
59531;BME280;45349;48.692;8.186;2023-02-21T06:53:38;99125.91;;;2.55;100.00
59531;BME280;45349;48.692;8.186;2023-02-21T06:56:05;99128.78;;;2.65;100.00
59531;BME280;45349;48.692;8.186;2023-02-21T06:58:32;99124.25;;;2.69;100.00
59531;BME280;45349;48.692;8.186;2023-02-21T07:00:59;99127.84;;;2.66;100.00
59531;BME280;45349;48.692;8.186;2023-02-21T07:03:26;99128.25;;;2.74;100.00
59531;BME280;45349;48.692;8.186;2023-02-21T07:05:52;99126.69;;;2.86;100.00
59531;BME280;45349;48.692;8.186;2023-02-21T07:08:20;99128.91;;;2.92;100.00
59531;BME280;45349;48.692;8.186;2023-02-21T07:10:47;99131.59;;;2.91;100.00
59531;BME280;45349;48.692;8.186;2023-02-21T07:13:13;99138.25;;;2.95;100.00
59531;BME280;45349;48.692;8.186;2023-02-21T07:15:40;99135.56;;;2.97;100.00
59531;BME280;45349;48.692;8.186;2023-02-21T07:18:06;99133.09;;;2.95;100.00
59531;BME280;45349;48.692;8.186;2023-02-21T07:20:33;99134.81;;;2.94;100.00
59531;BME280;45349;48.692;8.186;2023-02-21T07:23:00;99135.13;;;3.04;100.00
59531;BME280;45349;48.692;8.186;2023-02-21T07:25:28;99127.22;;;3.07;100.00
59531;BME280;45349;48.692;8.186;2023-02-21T07:27:55;99136.59;;;3.08;100.00
59531;BME280;45349;48.692;8.186;2023-02-21T07:30:21;99134.19;;;3.05;100.00
59531;BME280;45349;48.692;8.186;2023-02-21T07:32:48;99122.97;;;3.06;100.00
59531;BME280;45349;48.692;8.186;2023-02-21T07:35:15;99133.00;;;3.11;100.00
59531;BME280;45349;48.692;8.186;2023-02-21T07:37:41;99137.91;;;3.16;100.00
59531;BME280;45349;48.692;8.186;2023-02-21T07:40:09;99142.84;;;3.19;100.00
59531;BME280;45349;48.692;8.186;2023-02-21T07:42:39;99147.81;;;3.22;100.00
59531;BME280;45349;48.692;8.186;2023-02-21T07:45:08;99140.00;;;3.23;100.00
59531;BME280;45349;48.692;8.186;2023-02-21T07:47:34;99145.00;;;3.27;100.00
59531;BME280;45349;48.692;8.186;2023-02-21T07:50:01;99148.31;;;3.29;100.00
59531;BME280;45349;48.692;8.186;2023-02-21T07:52:27;99144.69;;;3.31;100.00
59531;BME280;45349;48.692;8.186;2023-02-21T07:54:54;99142.84;;;3.33;100.00
59531;BME280;45349;48.692;8.186;2023-02-21T07:57:20;99146.19;;;3.35;100.00
59531;BME280;45349;48.692;8.186;2023-02-21T07:59:48;99152.25;;;3.34;100.00
59531;BME280;45349;48.692;8.186;2023-02-21T08:02:15;99147.59;;;3.41;100.00
59531;BME280;45349;48.692;8.186;2023-02-21T08:04:42;99147.66;;;3.39;100.00
59531;BME280;45349;48.692;8.186;2023-02-21T08:07:08;99151.91;;;3.40;100.00
59531;BME280;45349;48.692;8.186;2023-02-21T08:09:35;99147.41;;;3.44;100.00
59531;BME280;45349;48.692;8.186;2023-02-21T08:12:03;99144.25;;;3.53;100.00
59531;BME280;45349;48.692;8.186;2023-02-21T08:14:29;99141.84;;;3.65;100.00
59531;BME280;45349;48.692;8.186;2023-02-21T08:16:57;99141.44;;;3.71;100.00
59531;BME280;45349;48.692;8.186;2023-02-21T08:19:24;99147.09;;;3.78;100.00
59531;BME280;45349;48.692;8.186;2023-02-21T08:21:50;99147.53;;;3.84;100.00
59531;BME280;45349;48.692;8.186;2023-02-21T08:24:19;99147.06;;;3.92;100.00
59531;BME280;45349;48.692;8.186;2023-02-21T08:26:46;99147.22;;;4.04;100.00
59531;BME280;45349;48.692;8.186;2023-02-21T08:29:13;99148.38;;;4.12;100.00
59531;BME280;45349;48.692;8.186;2023-02-21T08:31:42;99141.09;;;4.19;100.00
59531;BME280;45349;48.692;8.186;2023-02-21T08:34:10;99144.66;;;4.31;100.00
59531;BME280;45349;48.692;8.186;2023-02-21T08:36:39;99144.13;;;4.39;100.00
59531;BME280;45349;48.692;8.186;2023-02-21T08:39:07;99145.81;;;4.40;100.00
59531;BME280;45349;48.692;8.186;2023-02-21T08:41:35;99140.03;;;4.49;100.00
59531;BME280;45349;48.692;8.186;2023-02-21T08:44:04;99135.84;;;4.61;100.00
59531;BME280;45349;48.692;8.186;2023-02-21T08:46:31;99144.53;;;4.73;100.00
59531;BME280;45349;48.692;8.186;2023-02-21T08:48:57;99142.16;;;4.83;100.00
59531;BME280;45349;48.692;8.186;2023-02-21T08:51:26;99134.31;;;4.97;100.00
59531;BME280;45349;48.692;8.186;2023-02-21T08:53:53;99132.50;;;5.12;100.00
59531;BME280;45349;48.692;8.186;2023-02-21T08:56:20;99136.00;;;5.24;99.73
59531;BME280;45349;48.692;8.186;2023-02-21T08:58:46;99133.59;;;5.34;100.00
59531;BME280;45349;48.692;8.186;2023-02-21T09:01:14;99137.13;;;5.46;99.45
59531;BME280;45349;48.692;8.186;2023-02-21T09:03:40;99137.81;;;5.61;98.20
59531;BME280;45349;48.692;8.186;2023-02-21T09:06:07;99131.69;;;5.75;97.42
59531;BME280;45349;48.692;8.186;2023-02-21T09:08:35;99135.38;;;5.84;97.71
59531;BME280;45349;48.692;8.186;2023-02-21T09:11:03;99124.69;;;6.01;96.42
59531;BME280;45349;48.692;8.186;2023-02-21T09:13:30;99126.84;;;6.08;97.13
59531;BME280;45349;48.692;8.186;2023-02-21T09:15:58;99124.19;;;6.20;96.13
59531;BME280;45349;48.692;8.186;2023-02-21T09:18:26;99123.09;;;6.36;94.48
59531;BME280;45349;48.692;8.186;2023-02-21T09:20:53;99125.59;;;6.49;94.95
59531;BME280;45349;48.692;8.186;2023-02-21T09:23:22;99122.56;;;6.55;93.71
59531;BME280;45349;48.692;8.186;2023-02-21T09:25:52;99118.03;;;6.70;93.10
59531;BME280;45349;48.692;8.186;2023-02-21T09:28:20;99119.25;;;6.89;92.08
59531;BME280;45349;48.692;8.186;2023-02-21T09:30:47;99122.78;;;6.99;91.08
59531;BME280;45349;48.692;8.186;2023-02-21T09:33:15;99126.94;;;7.13;90.09
59531;BME280;45349;48.692;8.186;2023-02-21T09:35:41;99129.56;;;7.24;89.50
59531;BME280;45349;48.692;8.186;2023-02-21T09:38:08;99132.97;;;7.36;88.42
59531;BME280;45349;48.692;8.186;2023-02-21T09:40:39;99133.44;;;7.53;85.01
59531;BME280;45349;48.692;8.186;2023-02-21T09:43:12;99127.88;;;7.58;87.06
59531;BME280;45349;48.692;8.186;2023-02-21T09:45:41;99127.53;;;7.85;89.21
59531;BME280;45349;48.692;8.186;2023-02-21T09:48:12;99115.00;;;7.90;85.87
59531;BME280;45349;48.692;8.186;2023-02-21T09:50:41;99120.84;;;8.04;85.74
59531;BME280;45349;48.692;8.186;2023-02-21T09:53:13;99114.66;;;8.16;84.63
59531;BME280;45349;48.692;8.186;2023-02-21T09:55:42;99115.00;;;8.23;84.05
59531;BME280;45349;48.692;8.186;2023-02-21T09:58:12;99108.47;;;8.28;81.43
59531;BME280;45349;48.692;8.186;2023-02-21T10:00:39;99101.56;;;8.39;80.29
59531;BME280;45349;48.692;8.186;2023-02-21T10:03:43;99109.47;;;8.49;79.41
59531;BME280;45349;48.692;8.186;2023-02-21T10:06:19;99091.59;;;8.55;78.87
59531;BME280;45349;48.692;8.186;2023-02-21T10:08:55;99094.75;;;8.59;79.74
59531;BME280;45349;48.692;8.186;2023-02-21T10:11:31;99094.69;;;8.70;80.34
59531;BME280;45349;48.692;8.186;2023-02-21T10:14:15;99101.75;;;8.80;81.54
59531;BME280;45349;48.692;8.186;2023-02-21T10:16:47;99097.81;;;8.85;80.66
59531;BME280;45349;48.692;8.186;2023-02-21T10:19:20;99093.88;;;8.91;81.21
59531;BME280;45349;48.692;8.186;2023-02-21T10:21:53;99088.09;;;8.88;79.58
59531;BME280;45349;48.692;8.186;2023-02-21T10:24:24;99088.84;;;8.99;79.99
59531;BME280;45349;48.692;8.186;2023-02-21T10:26:56;99086.00;;;9.03;78.79
59531;BME280;45349;48.692;8.186;2023-02-21T10:29:33;99084.78;;;9.07;78.87
59531;BME280;45349;48.692;8.186;2023-02-21T10:32:02;99085.50;;;9.19;78.02
59531;BME280;45349;48.692;8.186;2023-02-21T10:34:30;99085.81;;;9.25;77.90
59531;BME280;45349;48.692;8.186;2023-02-21T10:37:03;99084.63;;;9.39;77.15
59531;BME280;45349;48.692;8.186;2023-02-21T10:39:35;99090.00;;;9.48;76.62
59531;BME280;45349;48.692;8.186;2023-02-21T10:42:09;99086.88;;;9.54;76.88
59531;BME280;45349;48.692;8.186;2023-02-21T10:44:39;99080.84;;;9.53;78.12
59531;BME280;45349;48.692;8.186;2023-02-21T10:47:13;99090.84;;;9.58;76.80
59531;BME280;45349;48.692;8.186;2023-02-21T10:50:00;99093.91;;;9.63;76.49
59531;BME280;45349;48.692;8.186;2023-02-21T10:52:27;99084.84;;;9.67;76.86
59531;BME280;45349;48.692;8.186;2023-02-21T10:55:06;99083.63;;;9.81;76.25
59531;BME280;45349;48.692;8.186;2023-02-21T10:57:39;99088.56;;;9.84;76.47
59531;BME280;45349;48.692;8.186;2023-02-21T11:00:09;99086.41;;;9.99;76.50
59531;BME280;45349;48.692;8.186;2023-02-21T11:02:49;99079.13;;;10.03;75.08
59531;BME280;45349;48.692;8.186;2023-02-21T11:05:20;99077.78;;;10.18;75.39
59531;BME280;45349;48.692;8.186;2023-02-21T11:07:56;99071.88;;;10.16;75.69
59531;BME280;45349;48.692;8.186;2023-02-21T11:10:26;99068.03;;;10.21;73.66
59531;BME280;45349;48.692;8.186;2023-02-21T11:13:05;99066.78;;;10.25;73.47
59531;BME280;45349;48.692;8.186;2023-02-21T11:15:33;99061.84;;;10.22;74.57
59531;BME280;45349;48.692;8.186;2023-02-21T11:18:21;99055.53;;;10.34;74.18
59531;BME280;45349;48.692;8.186;2023-02-21T11:20:50;99054.72;;;10.43;73.06
59531;BME280;45349;48.692;8.186;2023-02-21T11:23:24;99049.47;;;10.53;72.96
59531;BME280;45349;48.692;8.186;2023-02-21T11:25:57;99050.03;;;10.57;72.24
59531;BME280;45349;48.692;8.186;2023-02-21T11:28:24;99047.69;;;10.63;72.89
59531;BME280;45349;48.692;8.186;2023-02-21T11:31:06;99041.78;;;10.61;73.05
59531;BME280;45349;48.692;8.186;2023-02-21T11:33:36;99037.19;;;10.73;71.87
59531;BME280;45349;48.692;8.186;2023-02-21T11:36:10;99039.53;;;10.76;71.34
59531;BME280;45349;48.692;8.186;2023-02-21T11:38:39;99033.91;;;10.81;69.95
59531;BME280;45349;48.692;8.186;2023-02-21T11:41:21;99019.97;;;10.90;69.96
59531;BME280;45349;48.692;8.186;2023-02-21T11:43:49;99019.31;;;10.88;69.35
59531;BME280;45349;48.692;8.186;2023-02-21T11:46:23;99012.28;;;10.89;69.70
59531;BME280;45349;48.692;8.186;2023-02-21T11:48:59;99006.06;;;11.00;70.20
59531;BME280;45349;48.692;8.186;2023-02-21T11:51:39;98994.94;;;10.98;69.48
59531;BME280;45349;48.692;8.186;2023-02-21T11:54:07;98989.06;;;11.14;70.01
59531;BME280;45349;48.692;8.186;2023-02-21T11:56:42;98989.19;;;11.22;69.12
59531;BME280;45349;48.692;8.186;2023-02-21T11:59:18;98984.03;;;11.30;67.73
59531;BME280;45349;48.692;8.186;2023-02-21T12:02:05;98978.03;;;11.20;67.17
59531;BME280;45349;48.692;8.186;2023-02-21T12:04:55;98969.53;;;11.18;67.96
59531;BME280;45349;48.692;8.186;2023-02-21T12:07:32;98963.66;;;11.34;67.90
59531;BME280;45349;48.692;8.186;2023-02-21T12:10:25;98964.50;;;11.34;68.49
59531;BME280;45349;48.692;8.186;2023-02-21T12:13:02;98954.72;;;11.55;68.52
59531;BME280;45349;48.692;8.186;2023-02-21T12:15:39;98951.38;;;11.62;67.74
59531;BME280;45349;48.692;8.186;2023-02-21T12:18:41;98948.50;;;11.74;67.86
59531;BME280;45349;48.692;8.186;2023-02-21T12:21:19;98936.84;;;11.86;66.59
59531;BME280;45349;48.692;8.186;2023-02-21T12:23:57;98933.09;;;11.89;65.29
59531;BME280;45349;48.692;8.186;2023-02-21T12:26:45;98936.47;;;11.99;65.52
59531;BME280;45349;48.692;8.186;2023-02-21T12:29:24;98932.13;;;12.08;65.34
59531;BME280;45349;48.692;8.186;2023-02-21T12:32:13;98932.72;;;12.02;63.75
59531;BME280;45349;48.692;8.186;2023-02-21T12:34:58;98926.44;;;12.13;64.77
59531;BME280;45349;48.692;8.186;2023-02-21T12:37:30;98918.44;;;12.14;63.61
59531;BME280;45349;48.692;8.186;2023-02-21T12:40:13;98904.38;;;12.15;64.40
59531;BME280;45349;48.692;8.186;2023-02-21T12:42:53;98896.41;;;12.25;64.46
59531;BME280;45349;48.692;8.186;2023-02-21T12:45:39;98901.91;;;12.14;65.92
59531;BME280;45349;48.692;8.186;2023-02-21T12:48:14;98892.78;;;12.18;64.91
59531;BME280;45349;48.692;8.186;2023-02-21T12:50:51;98892.66;;;12.28;64.22
59531;BME280;45349;48.692;8.186;2023-02-21T12:53:23;98879.47;;;12.37;63.44
59531;BME280;45349;48.692;8.186;2023-02-21T12:55:54;98871.00;;;12.52;65.05
59531;BME280;45349;48.692;8.186;2023-02-21T12:58:27;98866.31;;;12.55;64.94
59531;BME280;45349;48.692;8.186;2023-02-21T13:00:59;98862.88;;;12.63;63.99
59531;BME280;45349;48.692;8.186;2023-02-21T13:03:39;98858.16;;;12.67;63.96
59531;BME280;45349;48.692;8.186;2023-02-21T13:06:14;98856.34;;;12.67;64.57
59531;BME280;45349;48.692;8.186;2023-02-21T13:08:52;98848.16;;;12.70;63.77
59531;BME280;45349;48.692;8.186;2023-02-21T13:11:26;98841.81;;;12.81;63.66
59531;BME280;45349;48.692;8.186;2023-02-21T13:13:55;98846.28;;;12.97;62.43
59531;BME280;45349;48.692;8.186;2023-02-21T13:16:21;98843.50;;;13.07;62.11
59531;BME280;45349;48.692;8.186;2023-02-21T13:18:51;98836.97;;;13.20;61.20
59531;BME280;45349;48.692;8.186;2023-02-21T13:21:43;98829.94;;;13.20;59.96
59531;BME280;45349;48.692;8.186;2023-02-21T13:24:42;98831.25;;;13.16;60.91
59531;BME280;45349;48.692;8.186;2023-02-21T13:27:46;98830.44;;;13.32;59.75
59531;BME280;45349;48.692;8.186;2023-02-21T13:30:21;98826.97;;;13.32;59.99
59531;BME280;45349;48.692;8.186;2023-02-21T13:32:52;98820.91;;;13.39;60.89
59531;BME280;45349;48.692;8.186;2023-02-21T13:35:24;98816.69;;;13.47;59.63
59531;BME280;45349;48.692;8.186;2023-02-21T13:37:53;98810.44;;;13.31;59.85
59531;BME280;45349;48.692;8.186;2023-02-21T13:40:23;98810.59;;;13.38;61.62